Akhiok, AK

8:22 AM AKDT on March 24, 2017 (GMT -0800)
Akhiok AP, Akhiok, AK | | Change Station

Elev 43 ft 56.94 °N, 154.18 °W | Updated 26 minutes ago

Clear
Clear
20 °F
Feels Like 15 °F
N
4
Wind Variable Wind from North

Today
High -- | Low -- °F
--% Chance of Precip.
Yesterday
High -- | Low -- °F
Precip. -- in
Pressure 29.85 in
Visibility -9999.0 miles
Clouds Clear
Windchill 15 °F
Dew Point 13 °F
Humidity 74%
Rainfall 0.00 in
Snow Depth Not available.
8:06 AM 8:40 PM
Waning Crescent, 14% visible
METAR PAKH 241556Z AUTO 35003KT CLR M07/M11 A2984 RMK AO2 SLP107 T10671106 PWINO FZRANO $
Pressure 29.85 in
Visibility -9999.0 miles
Clouds Clear
Windchill 15 °F
Dew Point 13 °F
Humidity 74%
Rainfall 0.00 in
Snow Depth Not available.
8:06 AM 8:40 PM
Waning Crescent, 14% visible
METAR PAKH 241556Z AUTO 35003KT CLR M07/M11 A2984 RMK AO2 SLP107 T10671106 PWINO FZRANO $

Get Severe Weather Alerts

Thanks for signing up!

Be on the lookout for a verification email in your inbox.

You'll start receiving the daily forecast at 8 AM.

×

10-Day Weather Forecast

Almanac

Astronomy

Mar. 24, 2017 Rise Set
Actual Time
Civil Twilight
Nautical Twilight
Astronomical Twilight
Moon
Length of Visible Light
Length of Day
Tomorrow will be .
, % of the Moon is Illuminated

Today's Extremes

State Highs State Lows

Community

WunderPhotos

Upload Photos

1,962,540 photos uploaded!

WunderBlog® & News

Nearby

Air Quality

  Air Quality AQ Index Pollutant
Not available.

Snow Depth

Station Depth Elevation

Earthquake Activity

City Distance Mag. Time & Date
Minimum magnitude displayed is 2.5.

Earthquake Activity

City Distance Mag. Time & Date
Minimum magnitude displayed is 2.5.

Coastal Water Temperatures

Place Temperature

Stations

Nearby Weather Stations

Station Location Temp. Windchill Dew Point Humidity Wind Precip. Elev Updated Type
                   

Watches & Warnings

There are currently no watches in effect.